Time;durP1;ratioP1;P1;durP2;ratioP2;P2;SDS_P1;SDS_P2;PMS_P1;PMS_P2;Temp;Humidity;BMP_temperature;BMP_pressure;BME280_temperature;BME280_humidity;BME280_pressure;Samples;Min_cycle;Max_cycle;Signal;HPM_P1;HPM_P2
2022/04/27 00:01:12;;;;;;;3.30;3.00;;;14.40;93.70;;;;;;5079556;28;20282;-68
2022/04/27 00:03:39;;;;;;;3.20;3.00;;;14.40;93.80;;;;;;5067562;28;20208;-68
2022/04/27 00:06:05;;;;;;;3.13;2.90;;;14.40;94.00;;;;;;5067319;28;20613;-68
2022/04/27 00:08:32;;;;;;;3.00;2.80;;;14.30;94.10;;;;;;5067066;28;20207;-68
2022/04/27 00:10:59;;;;;;;2.90;2.70;;;14.30;94.20;;;;;;5087285;28;20256;-68
2022/04/27 00:13:26;;;;;;;3.13;2.93;;;14.20;94.20;;;;;;5087636;28;20219;-68
2022/04/27 00:15:52;;;;;;;4.43;2.60;;;14.20;94.30;;;;;;5088984;28;20238;-68
2022/04/27 00:18:21;;;;;;;3.43;3.10;;;14.20;94.50;;;;;;5090947;28;20206;-68
2022/04/27 00:20:47;;;;;;;3.13;2.93;;;14.20;94.50;;;;;;5090257;28;20223;-68
2022/04/27 00:23:14;;;;;;;3.93;2.80;;;14.10;94.60;;;;;;5090349;28;20661;-69
2022/04/27 00:25:41;;;;;;;2.50;2.40;;;14.10;94.80;;;;;;5090859;28;20207;-68
2022/04/27 00:28:07;;;;;;;2.70;2.50;;;14.10;94.90;;;;;;5090728;28;20210;-68
2022/04/27 00:30:34;;;;;;;3.37;2.90;;;14.00;94.90;;;;;;5090676;28;20202;-68
2022/04/27 00:33:01;;;;;;;2.97;2.47;;;13.90;94.90;;;;;;5090348;28;20662;-68
2022/04/27 00:35:29;;;;;;;4.63;3.10;;;13.90;94.90;;;;;;5090712;28;20226;-68
2022/04/27 00:37:55;;;;;;;3.07;2.73;;;13.90;94.90;;;;;;5090172;28;20716;-68
2022/04/27 00:40:22;;;;;;;3.03;2.83;;;13.80;95.00;;;;;;5090544;28;20222;-68
2022/04/27 00:42:49;;;;;;;2.93;2.67;;;13.80;95.10;;;;;;5090356;28;20280;-68
2022/04/27 00:45:15;;;;;;;3.27;2.50;;;13.80;95.10;;;;;;5090628;28;20277;-68
2022/04/27 00:47:42;;;;;;;3.27;2.97;;;13.70;95.00;;;;;;5090412;28;20625;-68
2022/04/27 00:50:10;;;;;;;2.80;2.60;;;13.70;95.20;;;;;;5090459;28;20207;-68
2022/04/27 00:52:38;;;;;;;3.03;2.47;;;13.60;95.20;;;;;;5089837;28;20256;-68
2022/04/27 00:55:06;;;;;;;4.23;2.80;;;13.60;95.30;;;;;;5089747;28;20314;-69
2022/04/27 00:57:34;;;;;;;2.90;2.70;;;13.60;95.50;;;;;;5090291;28;20268;-69
2022/04/27 01:00:00;;;;;;;3.60;3.23;;;13.50;95.50;;;;;;5090137;28;20207;-68
2022/04/27 01:02:27;;;;;;;3.17;2.87;;;13.50;95.40;;;;;;5090492;28;20202;-69
2022/04/27 01:04:54;;;;;;;3.13;2.93;;;13.50;95.40;;;;;;5089861;28;20349;-69
2022/04/27 01:07:21;;;;;;;3.17;2.80;;;13.40;95.30;;;;;;5090311;28;20252;-69
2022/04/27 01:09:50;;;;;;;3.53;2.70;;;13.40;95.30;;;;;;5089945;28;20214;-69
2022/04/27 01:12:17;;;;;;;4.67;3.23;;;13.30;95.30;;;;;;5089610;28;20318;-69
2022/04/27 01:14:44;;;;;;;2.77;2.57;;;13.30;95.40;;;;;;5090077;28;20207;-69
2022/04/27 01:17:11;;;;;;;3.93;3.17;;;13.20;95.50;;;;;;5089659;28;20238;-68
2022/04/27 01:19:38;;;;;;;3.10;2.90;;;13.20;95.50;;;;;;5089390;28;20206;-68
2022/04/27 01:22:06;;;;;;;3.27;2.73;;;13.20;95.50;;;;;;5089561;28;20280;-68
2022/04/27 01:24:33;;;;;;;3.10;2.90;;;13.20;95.60;;;;;;5109579;28;20210;-68
2022/04/27 01:27:00;;;;;;;3.63;3.33;;;13.10;95.60;;;;;;5109887;28;20210;-68
2022/04/27 01:29:27;;;;;;;3.90;3.50;;;13.10;95.60;;;;;;5110195;28;20206;-68
2022/04/27 01:31:54;;;;;;;3.00;2.80;;;13.00;95.70;;;;;;5097342;28;20296;-68
2022/04/27 01:34:21;;;;;;;3.60;3.30;;;13.00;95.70;;;;;;5089519;28;20207;-68
2022/04/27 01:36:48;;;;;;;4.57;3.13;;;13.00;95.80;;;;;;5089288;28;20618;-68
2022/04/27 01:39:16;;;;;;;4.70;3.53;;;12.90;95.90;;;;;;5088824;28;20238;-69
2022/04/27 01:41:43;;;;;;;4.50;4.00;;;12.90;96.00;;;;;;5089156;28;20744;-69
2022/04/27 01:44:09;;;;;;;3.60;3.30;;;12.90;96.00;;;;;;5089387;28;20277;-69
2022/04/27 01:46:36;;;;;;;4.63;3.30;;;12.90;96.10;;;;;;5089366;28;20207;-69
2022/04/27 01:49:03;;;;;;;3.63;3.33;;;12.80;96.20;;;;;;5089221;28;20207;-69
2022/04/27 01:54:16;;;;;;;3.93;3.53;;;12.80;96.40;;;;;;5088589;28;20563;-69
2022/04/27 01:56:44;;;;;;;3.97;3.67;;;12.70;96.80;;;;;;5089242;28;20287;-68
2022/04/27 01:59:12;;;;;;;4.10;3.70;;;12.70;96.70;;;;;;5089041;28;20203;-68
2022/04/27 02:01:38;;;;;;;4.43;4.03;;;12.60;96.80;;;;;;5088236;28;20647;-68
2022/04/27 02:04:05;;;;;;;4.40;3.93;;;12.60;96.90;;;;;;5088955;28;20225;-69
2022/04/27 02:06:35;;;;;;;4.33;4.00;;;12.50;97.40;;;;;;5089219;28;20202;-69
2022/04/27 02:09:02;;;;;;;4.20;3.90;;;12.60;97.20;;;;;;5088711;28;20203;-68
2022/04/27 02:11:29;;;;;;;4.70;4.40;;;12.50;97.20;;;;;;5089082;28;20210;-68
2022/04/27 02:13:57;;;;;;;4.07;3.73;;;12.50;97.30;;;;;;5088688;28;20199;-68
2022/04/27 02:16:24;;;;;;;4.63;4.23;;;12.50;97.40;;;;;;5088676;28;20223;-68
2022/04/27 02:18:51;;;;;;;5.07;4.10;;;12.40;97.40;;;;;;5088935;28;20252;-68
2022/04/27 02:21:18;;;;;;;4.57;4.27;;;12.50;97.50;;;;;;5088751;28;20239;-68
2022/04/27 02:23:45;;;;;;;4.63;4.23;;;12.40;97.40;;;;;;5075576;28;20211;-68
2022/04/27 02:26:12;;;;;;;4.43;4.03;;;12.40;97.80;;;;;;5079944;28;20199;-68
2022/04/27 02:28:38;;;;;;;4.53;4.13;;;12.30;97.60;;;;;;5088829;28;20256;-68
2022/04/27 02:31:09;;;;;;;5.07;4.50;;;12.40;97.60;;;;;;5088340;28;20194;-68
2022/04/27 02:33:36;;;;;;;5.53;4.47;;;12.40;97.60;;;;;;5088305;28;20756;-68
2022/04/27 02:36:07;;;;;;;4.73;4.43;;;12.30;97.60;;;;;;5088548;28;20226;-68
2022/04/27 02:38:34;;;;;;;4.40;4.00;;;12.30;97.60;;;;;;5087216;28;20235;-68
2022/04/27 02:41:03;;;;;;;4.80;4.50;;;12.20;97.50;;;;;;5088406;28;20207;-68
2022/04/27 02:43:31;;;;;;;4.17;3.87;;;12.20;97.60;;;;;;5088306;28;20205;-68
2022/04/27 02:45:58;;;;;;;6.63;3.97;;;12.20;97.70;;;;;;5088264;28;20211;-68
2022/04/27 02:48:26;;;;;;;5.87;4.60;;;12.10;97.80;;;;;;5088519;28;20202;-68
2022/04/27 02:53:37;;;;;;;5.07;4.70;;;12.10;97.90;;;;;;5087917;28;20190;-68
2022/04/27 02:56:07;;;;;;;4.67;4.23;;;12.00;97.90;;;;;;5087852;28;20226;-68
2022/04/27 02:58:33;;;;;;;6.40;4.47;;;12.00;97.90;;;;;;5088333;28;20295;-69
2022/04/27 03:01:00;;;;;;;4.30;4.00;;;12.00;97.90;;;;;;5088032;28;20260;-69
2022/04/27 03:03:28;;;;;;;4.93;4.57;;;12.00;98.00;;;;;;5087936;28;20237;-70
2022/04/27 03:05:55;;;;;;;4.67;4.27;;;11.90;98.00;;;;;;5071963;28;20207;-69
2022/04/27 03:08:21;;;;;;;4.87;4.50;;;11.90;98.00;;;;;;5077505;28;20206;-70
2022/04/27 03:10:48;;;;;;;4.47;4.17;;;11.90;98.00;;;;;;5087900;28;20651;-70
2022/04/27 03:13:15;;;;;;;6.37;4.40;;;11.90;98.00;;;;;;5087872;28;20281;-69
2022/04/27 03:15:42;;;;;;;4.63;4.17;;;11.80;98.20;;;;;;5087547;28;20256;-70
2022/04/27 03:18:19;;;;;;;5.43;4.70;;;11.80;98.30;;;;;;5086807;28;20267;-70
2022/04/27 03:20:48;;;;;;;4.80;4.40;;;11.80;98.30;;;;;;5078244;28;20229;-69
2022/04/27 03:23:15;;;;;;;5.27;4.87;;;11.80;98.40;;;;;;5084844;28;20318;-70
2022/04/27 03:25:42;;;;;;;5.30;4.27;;;11.80;98.40;;;;;;5085662;28;20202;-70
2022/04/27 03:28:09;;;;;;;5.10;4.40;;;11.80;98.50;;;;;;5085429;28;20649;-70
2022/04/27 03:30:36;;;;;;;5.07;4.67;;;11.70;98.50;;;;;;5085436;28;20214;-70
2022/04/27 03:33:03;;;;;;;4.93;4.43;;;11.70;98.60;;;;;;5084950;28;20202;-69
2022/04/27 03:35:29;;;;;;;5.13;4.70;;;11.70;98.60;;;;;;5084925;28;20568;-71
2022/04/27 03:37:58;;;;;;;6.10;5.50;;;11.70;98.70;;;;;;5085063;28;20249;-71
2022/04/27 03:40:25;;;;;;;7.27;5.33;;;11.70;98.60;;;;;;5085366;28;20206;-69
2022/04/27 03:42:52;;;;;;;5.20;4.80;;;11.60;98.60;;;;;;5084848;28;20217;-69
2022/04/27 03:45:19;;;;;;;5.20;4.50;;;11.60;98.70;;;;;;5085314;28;20949;-69
2022/04/27 03:47:46;;;;;;;5.47;4.73;;;11.60;98.80;;;;;;5085660;28;20272;-70
2022/04/27 03:50:13;;;;;;;5.50;4.90;;;11.60;98.80;;;;;;5088409;28;20210;-70
2022/04/27 03:52:40;;;;;;;5.67;4.93;;;11.60;98.90;;;;;;5090107;28;20218;-69
2022/04/27 03:55:08;;;;;;;5.13;4.63;;;11.50;98.80;;;;;;5088928;28;20199;-69
2022/04/27 03:57:35;;;;;;;6.77;5.20;;;11.60;98.90;;;;;;5090900;28;20350;-70
2022/04/27 04:00:03;;;;;;;5.40;4.80;;;11.50;99.00;;;;;;5089054;28;20211;-69
2022/04/27 04:02:29;;;;;;;5.00;4.60;;;11.50;99.00;;;;;;5088084;28;20206;-69
2022/04/27 04:04:56;;;;;;;6.03;4.27;;;11.50;99.10;;;;;;5089459;28;20199;-69
2022/04/27 04:07:26;;;;;;;5.27;4.77;;;11.50;99.20;;;;;;5090812;28;20542;-69
2022/04/27 04:09:52;;;;;;;5.23;4.73;;;11.40;99.10;;;;;;5090671;28;20733;-71
2022/04/27 04:12:20;;;;;;;7.00;5.00;;;11.50;99.20;;;;;;5091080;28;20211;-70
2022/04/27 04:14:47;;;;;;;6.30;4.77;;;11.40;99.30;;;;;;5089414;28;20599;-70
2022/04/27 04:17:13;;;;;;;5.73;4.83;;;11.40;99.40;;;;;;5096121;28;20230;-70
2022/04/27 04:19:40;;;;;;;7.03;4.73;;;11.40;99.40;;;;;;5098687;28;20199;-70
2022/04/27 04:22:08;;;;;;;5.00;4.60;;;11.40;99.40;;;;;;5098672;28;20202;-70
2022/04/27 04:24:34;;;;;;;5.27;4.70;;;11.40;99.40;;;;;;5099399;28;20202;-70
2022/04/27 04:29:47;;;;;;;6.70;5.10;;;11.30;99.40;;;;;;5099135;28;20579;-70
2022/04/27 04:32:13;;;;;;;5.43;4.70;;;11.40;99.50;;;;;;5100260;28;20656;-70
2022/04/27 04:34:40;;;;;;;5.73;4.87;;;11.30;99.50;;;;;;5099806;28;20195;-70
2022/04/27 04:37:06;;;;;;;5.77;5.17;;;11.10;99.60;;;;;;5098590;28;20227;-70
2022/04/27 04:39:33;;;;;;;7.07;4.93;;;11.00;99.90;;;;;;5097442;28;20292;-70
2022/04/27 04:42:00;;;;;;;5.03;4.63;;;11.10;99.90;;;;;;5097819;28;20206;-70
2022/04/27 04:44:26;;;;;;;7.13;5.10;;;11.10;99.90;;;;;;5106761;28;20202;-70
2022/04/27 04:46:54;;;;;;;9.20;5.70;;;11.20;99.90;;;;;;5099622;28;20692;-70
2022/04/27 04:49:21;;;;;;;6.80;5.53;;;11.20;99.90;;;;;;5108577;28;20202;-70
2022/04/27 04:51:48;;;;;;;5.63;5.10;;;11.30;99.80;;;;;;5098199;28;20211;-70
2022/04/27 04:54:14;;;;;;;5.60;4.97;;;11.30;99.70;;;;;;5091971;28;20199;-70
2022/04/27 04:56:41;;;;;;;7.53;5.17;;;11.10;99.70;;;;;;5092448;28;20338;-70
2022/04/27 04:59:07;;;;;;;6.17;5.67;;;10.90;99.90;;;;;;5092405;28;20205;-70
2022/04/27 05:01:34;;;;;;;6.80;5.60;;;10.80;99.90;;;;;;5096747;28;20721;-70
2022/04/27 05:04:02;;;;;;;8.07;6.00;;;10.90;99.90;;;;;;5097000;28;20724;-71
2022/04/27 05:06:29;;;;;;;7.33;5.33;;;11.10;99.90;;;;;;5098603;28;20278;-69
2022/04/27 05:08:56;;;;;;;6.70;5.67;;;11.20;99.90;;;;;;5107781;28;20217;-70
2022/04/27 05:11:22;;;;;;;30.50;6.97;;;11.30;99.90;;;;;;5091099;28;20207;-70
2022/04/27 05:13:49;;;;;;;24.60;6.37;;;11.40;99.90;;;;;;5101475;28;20198;-70
2022/04/27 05:16:16;;;;;;;9.47;5.80;;;11.40;99.90;;;;;;5103447;28;20216;-70
2022/04/27 05:18:42;;;;;;;14.53;5.80;;;11.50;99.90;;;;;;5095858;28;20657;-70
2022/04/27 05:21:10;;;;;;;13.60;6.17;;;11.50;99.90;;;;;;5088324;28;20280;-70
2022/04/27 05:23:40;;;;;;;8.60;5.10;;;11.50;99.70;;;;;;5077021;28;20211;-70
2022/04/27 05:26:07;;;;;;;6.13;5.53;;;11.60;99.60;;;;;;5068448;28;20208;-70
2022/04/27 05:31:54;;;;;;;6.17;5.13;;;11.60;99.70;;;;;;5085626;28;20199;-70
2022/04/27 05:34:06;;;;;;;6.30;5.63;;;11.40;99.70;;;;;;5070188;28;20577;-70
2022/04/27 05:36:34;;;;;;;6.00;5.40;;;11.40;99.90;;;;;;5088491;28;20203;-70
2022/04/27 05:39:01;;;;;;;6.93;6.23;;;11.40;99.90;;;;;;5087847;28;20243;-70
2022/04/27 05:41:28;;;;;;;9.73;5.77;;;11.40;99.90;;;;;;5088692;28;20275;-70
2022/04/27 05:43:54;;;;;;;6.67;5.97;;;11.40;99.90;;;;;;5088157;28;20260;-70
2022/04/27 05:46:21;;;;;;;8.67;5.90;;;11.40;99.90;;;;;;5088427;28;20207;-70
2022/04/27 05:48:48;;;;;;;6.90;6.30;;;11.60;99.90;;;;;;5088222;28;20229;-70
2022/04/27 05:51:14;;;;;;;6.50;5.90;;;11.60;99.80;;;;;;5088192;28;20213;-70
2022/04/27 05:53:42;;;;;;;8.73;6.20;;;11.60;99.70;;;;;;5087962;28;20202;-70
2022/04/27 05:56:09;;;;;;;7.50;5.87;;;11.60;99.70;;;;;;5087675;28;20586;-70
2022/04/27 05:58:36;;;;;;;6.90;6.20;;;11.60;99.60;;;;;;5088399;28;20487;-70
2022/04/27 06:01:04;;;;;;;6.77;6.07;;;11.60;99.20;;;;;;5087613;28;20215;-70
2022/04/27 06:03:31;;;;;;;7.47;5.97;;;11.60;99.40;;;;;;5086621;28;20695;-70
2022/04/27 06:05:58;;;;;;;6.63;6.03;;;11.70;99.20;;;;;;5087175;28;20791;-70
2022/04/27 06:08:24;;;;;;;6.87;5.90;;;11.80;99.00;;;;;;5087414;28;20207;-70
2022/04/27 06:10:52;;;;;;;7.77;5.70;;;11.90;98.80;;;;;;5088480;28;20214;-70
2022/04/27 06:13:19;;;;;;;9.20;5.77;;;12.00;98.90;;;;;;5085280;28;20218;-70
2022/04/27 06:15:46;;;;;;;8.30;5.97;;;12.00;98.80;;;;;;5087967;28;20206;-70
2022/04/27 06:18:12;;;;;;;7.47;5.83;;;11.90;98.80;;;;;;5087888;28;20218;-70
2022/04/27 06:20:39;;;;;;;8.83;5.87;;;11.90;98.40;;;;;;5087474;28;20214;-70
2022/04/27 06:23:06;;;;;;;5.90;5.37;;;11.80;98.60;;;;;;5087085;28;20207;-70
2022/04/27 06:25:34;;;;;;;9.00;6.60;;;11.80;99.10;;;;;;5087741;28;20191;-70
2022/04/27 06:28:02;;;;;;;6.83;6.20;;;11.90;98.90;;;;;;5085442;28;20218;-70
2022/04/27 06:30:29;;;;;;;6.80;6.10;;;12.00;98.70;;;;;;5087877;28;20197;-69
2022/04/27 06:32:55;;;;;;;7.10;5.90;;;12.10;98.10;;;;;;5087558;28;20199;-69
2022/04/27 06:35:22;;;;;;;6.83;6.13;;;12.20;98.00;;;;;;5087460;28;20198;-69
2022/04/27 06:37:48;;;;;;;12.87;8.43;;;12.30;97.80;;;;;;5087499;28;20233;-70
2022/04/27 06:40:15;;;;;;;11.70;7.37;;;12.40;97.70;;;;;;5087165;28;20217;-70
2022/04/27 06:42:43;;;;;;;6.57;5.97;;;12.50;97.60;;;;;;5087088;28;20203;-70
2022/04/27 06:45:12;;;;;;;7.27;6.13;;;12.60;97.40;;;;;;5087142;28;20661;-70
2022/04/27 06:47:39;;;;;;;6.40;5.27;;;12.60;97.00;;;;;;5088192;28;20213;-70
2022/04/27 06:50:07;;;;;;;8.83;6.07;;;12.70;96.90;;;;;;5086737;28;20206;-70
2022/04/27 06:52:33;;;;;;;14.40;6.20;;;12.70;96.80;;;;;;5087800;28;20217;-70
2022/04/27 06:55:00;;;;;;;6.70;5.97;;;12.80;96.90;;;;;;5087336;28;20211;-70
2022/04/27 06:57:26;;;;;;;6.20;5.53;;;12.80;96.90;;;;;;5080268;28;20242;-70
2022/04/27 06:59:53;;;;;;;6.43;5.83;;;12.80;96.70;;;;;;5087426;28;20238;-70
2022/04/27 07:02:21;;;;;;;6.97;6.27;;;12.80;96.30;;;;;;5087381;28;20621;-70
2022/04/27 07:04:52;;;;;;;6.63;6.00;;;12.80;96.40;;;;;;5087711;28;20252;-70
2022/04/27 07:07:18;;;;;;;25.60;7.97;;;12.80;96.50;;;;;;5088270;28;20274;-70
2022/04/27 07:09:45;;;;;;;29.13;7.13;;;12.90;96.60;;;;;;5087921;28;20234;-70
2022/04/27 07:12:13;;;;;;;9.23;6.37;;;13.00;96.60;;;;;;5087769;28;20206;-70
2022/04/27 07:14:39;;;;;;;7.07;6.00;;;13.00;96.80;;;;;;5087028;28;20226;-70
2022/04/27 07:17:06;;;;;;;5.13;4.73;;;13.10;96.80;;;;;;5087340;28;20202;-70
2022/04/27 07:19:34;;;;;;;6.47;5.53;;;13.10;96.60;;;;;;5087122;28;20195;-70
2022/04/27 07:22:02;;;;;;;5.40;4.90;;;13.20;96.50;;;;;;5087477;28;20211;-70
2022/04/27 07:24:29;;;;;;;7.77;6.47;;;13.20;96.60;;;;;;5087600;28;20199;-70
2022/04/27 07:26:56;;;;;;;6.37;5.00;;;13.30;96.60;;;;;;5091792;28;20308;-70
2022/04/27 07:29:23;;;;;;;6.17;5.30;;;13.30;96.50;;;;;;5091006;28;20210;-70
2022/04/27 07:31:50;;;;;;;6.60;5.10;;;13.40;96.40;;;;;;5091481;28;20206;-70
2022/04/27 07:34:16;;;;;;;5.20;4.70;;;13.40;96.10;;;;;;5091510;28;20199;-70
2022/04/27 07:36:44;;;;;;;5.53;4.67;;;13.40;96.20;;;;;;5090877;28;20580;-70
2022/04/27 07:39:11;;;;;;;5.47;5.07;;;13.40;96.20;;;;;;5089919;28;20446;-70
2022/04/27 07:41:38;;;;;;;5.60;5.10;;;13.50;96.30;;;;;;5090441;28;20233;-70
2022/04/27 07:44:06;;;;;;;9.03;4.80;;;13.60;96.40;;;;;;5090286;28;20657;-70
2022/04/27 07:46:33;;;;;;;5.33;4.90;;;13.60;96.60;;;;;;5090171;28;20260;-69
2022/04/27 07:49:00;;;;;;;5.67;5.27;;;13.70;96.30;;;;;;5090700;28;20205;-70
2022/04/27 07:51:26;;;;;;;5.63;5.10;;;13.70;95.70;;;;;;5090587;28;20203;-70
2022/04/27 07:53:54;;;;;;;5.47;5.07;;;13.70;95.80;;;;;;5090541;28;20252;-69
2022/04/27 07:56:21;;;;;;;5.40;4.80;;;13.70;95.80;;;;;;5090888;28;20726;-70
2022/04/27 07:58:48;;;;;;;8.37;5.10;;;13.80;95.90;;;;;;5088849;28;20631;-70
2022/04/27 08:01:14;;;;;;;6.77;4.90;;;13.90;95.90;;;;;;5090991;28;20553;-69
2022/04/27 08:03:41;;;;;;;7.40;4.30;;;13.90;95.40;;;;;;5090993;28;20203;-70
2022/04/27 08:06:08;;;;;;;6.43;4.27;;;14.00;95.70;;;;;;5089969;28;20199;-70
2022/04/27 08:08:35;;;;;;;6.33;4.80;;;14.00;95.00;;;;;;5090727;28;20221;-70
2022/04/27 08:11:09;;;;;;;6.13;4.43;;;14.00;94.90;;;;;;5090365;28;20218;-70
2022/04/27 08:13:36;;;;;;;5.53;4.53;;;14.10;95.10;;;;;;5090629;28;20191;-70
2022/04/27 08:16:07;;;;;;;5.57;4.37;;;14.20;94.10;;;;;;5090798;28;20203;-67
2022/04/27 08:18:35;;;;;;;6.77;3.70;;;14.30;94.10;;;;;;5090695;28;20309;-68
2022/04/27 08:21:21;;;;;;;8.03;3.33;;;14.30;94.00;;;;;;5090282;28;20226;-68
2022/04/27 08:23:48;;;;;;;5.47;3.17;;;14.40;93.90;;;;;;5090425;28;20207;-68
2022/04/27 08:26:16;;;;;;;4.07;3.50;;;14.50;94.00;;;;;;5090643;28;20203;-68
2022/04/27 08:28:45;;;;;;;3.50;3.20;;;14.60;93.00;;;;;;5090541;28;20206;-69
2022/04/27 08:31:14;;;;;;;3.77;2.40;;;14.60;92.90;;;;;;5090327;28;20207;-68
2022/04/27 08:33:42;;;;;;;3.10;2.80;;;14.60;91.40;;;;;;5090623;28;20234;-69
2022/04/27 08:36:09;;;;;;;3.50;2.40;;;14.60;91.50;;;;;;5089149;28;20202;-69
2022/04/27 08:38:37;;;;;;;2.00;1.90;;;14.70;90.80;;;;;;5089611;28;21065;-68
2022/04/27 08:41:07;;;;;;;3.43;1.93;;;14.70;90.80;;;;;;5090506;28;20206;-69
2022/04/27 08:43:35;;;;;;;3.10;2.60;;;14.80;90.60;;;;;;5089629;28;20272;-69
2022/04/27 08:46:09;;;;;;;2.73;2.00;;;14.90;90.10;;;;;;5090175;28;20202;-69
2022/04/27 08:48:35;;;;;;;1.53;1.50;;;14.90;89.70;;;;;;5090482;28;20203;-69
2022/04/27 08:51:03;;;;;;;2.30;2.07;;;14.90;90.00;;;;;;5089775;28;20248;-68
2022/04/27 08:53:31;;;;;;;2.73;1.93;;;14.90;87.60;;;;;;5090298;28;20207;-69
2022/04/27 08:55:58;;;;;;;1.87;1.77;;;14.90;84.50;;;;;;5089164;28;20730;-69
2022/04/27 08:58:25;;;;;;;3.27;2.00;;;14.90;86.30;;;;;;5089724;28;20219;-69
2022/04/27 09:00:53;;;;;;;2.07;1.93;;;15.00;88.40;;;;;;5089207;28;20219;-69
2022/04/27 09:03:25;;;;;;;3.93;2.00;;;15.20;89.90;;;;;;5089709;28;20203;-69
2022/04/27 09:05:53;;;;;;;6.63;2.30;;;15.40;90.00;;;;;;5089275;28;20198;-68
2022/04/27 09:08:20;;;;;;;2.37;2.10;;;15.40;89.50;;;;;;5089677;28;20207;-68
2022/04/27 09:10:47;;;;;;;6.00;2.17;;;15.50;88.40;;;;;;5089512;28;20210;-69
2022/04/27 09:13:13;;;;;;;2.37;2.17;;;15.50;87.30;;;;;;5089306;28;20688;-68
2022/04/27 09:15:41;;;;;;;2.77;1.80;;;15.60;86.60;;;;;;5089308;28;20203;-68
2022/04/27 09:21:05;;;;;;;2.00;1.90;;;15.60;84.40;;;;;;5087253;28;20225;-69
2022/04/27 09:23:38;;;;;;;2.07;1.97;;;15.60;85.20;;;;;;5084771;28;20199;-69
2022/04/27 09:26:16;;;;;;;2.67;1.93;;;15.70;84.90;;;;;;5089141;28;20235;-69
2022/04/27 09:28:48;;;;;;;2.10;2.00;;;15.70;84.30;;;;;;5089127;28;20223;-69
2022/04/27 09:31:26;;;;;;;2.20;2.10;;;15.70;84.70;;;;;;5089194;28;20191;-69
2022/04/27 09:34:00;;;;;;;1.90;1.80;;;15.80;85.00;;;;;;5087149;28;20290;-69
2022/04/27 09:36:28;;;;;;;2.57;1.97;;;15.90;83.50;;;;;;5089525;28;20191;-69
2022/04/27 09:38:56;;;;;;;2.23;2.13;;;15.90;82.90;;;;;;5087387;28;20239;-69
2022/04/27 09:41:41;;;;;;;4.70;2.40;;;16.00;82.80;;;;;;5088765;28;20203;-69
2022/04/27 09:44:09;;;;;;;3.43;2.30;;;16.00;84.20;;;;;;5087606;28;20298;-69
2022/04/27 09:46:41;;;;;;;3.60;2.30;;;16.10;83.90;;;;;;5087865;28;20199;-69
2022/04/27 09:49:14;;;;;;;4.67;1.80;;;16.20;82.60;;;;;;5088215;28;20944;-69
2022/04/27 09:51:48;;;;;;;2.30;2.20;;;16.50;84.30;;;;;;5086462;28;20191;-69
2022/04/27 09:54:19;;;;;;;2.17;1.90;;;16.50;82.00;;;;;;5087655;28;20191;-69
2022/04/27 09:56:49;;;;;;;2.83;2.10;;;16.60;82.00;;;;;;5088118;28;20199;-69
2022/04/27 09:59:17;;;;;;;7.40;2.23;;;16.70;84.90;;;;;;5085361;28;20272;-69
2022/04/27 10:01:45;;;;;;;3.40;2.40;;;16.90;84.70;;;;;;5087994;28;20209;-69
2022/04/27 10:04:15;;;;;;;2.00;1.90;;;17.00;83.00;;;;;;5088238;28;20543;-69
2022/04/27 10:06:42;;;;;;;1.87;1.77;;;17.30;83.50;;;;;;5087973;28;20221;-69
2022/04/27 10:09:09;;;;;;;2.30;2.10;;;17.30;82.90;;;;;;5087450;28;20220;-69
2022/04/27 10:11:38;;;;;;;2.70;1.83;;;17.20;81.50;;;;;;5085194;28;20198;-69
2022/04/27 10:14:05;;;;;;;2.60;2.03;;;17.10;81.80;;;;;;5087287;28;20673;-69
2022/04/27 10:16:32;;;;;;;2.30;2.10;;;17.00;80.70;;;;;;5087807;28;20195;-69
2022/04/27 10:18:58;;;;;;;3.30;2.20;;;16.80;80.70;;;;;;5087177;28;20219;-69
2022/04/27 10:21:43;;;;;;;2.13;2.00;;;16.80;80.90;;;;;;5087343;28;20218;-69
2022/04/27 10:24:11;;;;;;;2.20;2.00;;;16.70;80.60;;;;;;5086254;28;20203;-69
2022/04/27 10:26:40;;;;;;;2.37;2.17;;;16.80;80.40;;;;;;5087224;28;20753;-69
2022/04/27 10:29:10;;;;;;;2.20;2.00;;;16.90;80.50;;;;;;5087017;28;20281;-69
2022/04/27 10:31:59;;;;;;;2.57;2.13;;;16.90;80.30;;;;;;5087470;28;20256;-69
2022/04/27 10:34:26;;;;;;;2.80;2.27;;;16.90;79.40;;;;;;5085812;28;20195;-69
2022/04/27 10:36:55;;;;;;;3.90;1.90;;;17.00;81.70;;;;;;5087322;28;20214;-70
2022/04/27 10:39:23;;;;;;;1.90;1.80;;;17.30;82.50;;;;;;5086486;28;20708;-69
2022/04/27 10:41:55;;;;;;;1.80;1.70;;;17.50;81.50;;;;;;5086901;28;20230;-69
2022/04/27 10:44:22;;;;;;;1.87;1.73;;;17.70;79.90;;;;;;5087444;28;20278;-69
2022/04/27 10:46:49;;;;;;;1.90;1.73;;;17.70;77.10;;;;;;5087310;28;20210;-69
2022/04/27 10:49:23;;;;;;;2.10;1.90;;;17.50;77.60;;;;;;5084394;28;20199;-69
2022/04/27 10:52:01;;;;;;;3.50;1.63;;;17.30;78.20;;;;;;5086957;28;20295;-69
2022/04/27 10:54:28;;;;;;;2.60;1.97;;;17.50;78.70;;;;;;5085766;28;20298;-69
2022/04/27 10:57:16;;;;;;;3.07;1.53;;;17.50;78.10;;;;;;5087080;28;20206;-69
2022/04/27 10:59:44;;;;;;;2.57;1.70;;;17.80;79.70;;;;;;5084561;28;20222;-69
2022/04/27 11:02:32;;;;;;;1.93;1.83;;;18.10;79.20;;;;;;5086499;28;20732;-69
2022/04/27 11:05:00;;;;;;;2.50;1.60;;;17.90;73.90;;;;;;5084297;28;20191;-69
2022/04/27 11:07:38;;;;;;;1.80;1.70;;;18.00;75.10;;;;;;5087290;28;20195;-69
2022/04/27 11:10:14;;;;;;;1.60;1.50;;;18.10;76.50;;;;;;5082516;28;20202;-69
2022/04/27 11:12:42;;;;;;;3.97;1.40;;;18.40;77.30;;;;;;5085172;28;20194;-69
2022/04/27 11:15:11;;;;;;;2.83;1.73;;;18.40;74.40;;;;;;5086830;28;20202;-69
2022/04/27 11:17:38;;;;;;;1.60;1.50;;;18.50;75.10;;;;;;5082027;28;20237;-69
2022/04/27 11:20:06;;;;;;;1.67;1.57;;;18.80;74.60;;;;;;5086289;28;20223;-69
2022/04/27 11:22:40;;;;;;;1.83;1.70;;;18.90;74.00;;;;;;5086542;28;20206;-69
2022/04/27 11:25:08;;;;;;;3.20;1.30;;;19.00;73.70;;;;;;5086519;28;20241;-69
2022/04/27 11:27:36;;;;;;;2.23;1.60;;;19.30;74.70;;;;;;5087084;28;20194;-69
2022/04/27 11:30:05;;;;;;;1.70;1.50;;;19.40;73.30;;;;;;5086955;28;20209;-69
2022/04/27 11:32:32;;;;;;;1.40;1.30;;;19.50;73.70;;;;;;5086164;28;20211;-69
2022/04/27 11:34:58;;;;;;;1.40;1.40;;;19.50;73.10;;;;;;5086322;28;20459;-69
2022/04/27 11:37:25;;;;;;;1.90;1.80;;;19.30;72.60;;;;;;5086718;28;20203;-69
2022/04/27 11:39:54;;;;;;;8.60;2.10;;;19.00;71.80;;;;;;5086076;28;20303;-69
2022/04/27 11:42:20;;;;;;;2.97;1.50;;;18.70;72.80;;;;;;5086930;28;20199;-69
2022/04/27 11:44:58;;;;;;;1.57;1.40;;;18.60;73.50;;;;;;5086272;28;20191;-69
2022/04/27 11:47:29;;;;;;;1.80;1.70;;;18.60;73.30;;;;;;5086782;28;20269;-69
2022/04/27 11:49:58;;;;;;;2.27;1.40;;;18.40;70.80;;;;;;5069900;28;20199;-69
2022/04/27 11:52:24;;;;;;;1.40;1.30;;;18.40;72.30;;;;;;5081588;28;20272;-69
2022/04/27 11:54:53;;;;;;;2.73;1.73;;;18.60;73.30;;;;;;5083768;28;20248;-68
2022/04/27 11:57:24;;;;;;;2.93;2.03;;;18.60;73.00;;;;;;5086431;28;20222;-68
2022/04/27 11:59:52;;;;;;;3.73;1.67;;;18.30;74.10;;;;;;5086531;28;20320;-69
2022/04/27 12:02:23;;;;;;;1.63;1.53;;;18.20;75.40;;;;;;5084309;28;20620;-68
2022/04/27 12:04:51;;;;;;;1.50;1.40;;;18.10;75.50;;;;;;5086569;28;20276;-69
2022/04/27 12:07:20;;;;;;;1.60;1.50;;;18.00;74.50;;;;;;5083077;28;20207;-69
2022/04/27 12:09:59;;;;;;;1.80;1.70;;;18.10;75.30;;;;;;5086343;28;20210;-69
2022/04/27 12:12:27;;;;;;;1.50;1.40;;;18.40;76.10;;;;;;5097145;28;20198;-69
2022/04/27 12:14:54;;;;;;;1.40;1.30;;;18.70;76.50;;;;;;5094413;28;20207;-69
2022/04/27 12:17:47;;;;;;;5.50;1.50;;;19.00;74.80;;;;;;5090903;28;20222;-69
2022/04/27 12:20:39;;;;;;;2.10;1.90;;;19.20;71.30;;;;;;5089380;28;20235;-68
2022/04/27 12:23:07;;;;;;;2.37;1.80;;;19.10;69.00;;;;;;5076997;28;20276;-69
2022/04/27 12:25:49;;;;;;;3.40;1.70;;;19.10;68.60;;;;;;5090534;28;20191;-69
2022/04/27 12:28:16;;;;;;;2.00;1.63;;;19.50;70.40;;;;;;5085380;28;20553;-69
2022/04/27 12:30:48;;;;;;;1.63;1.50;;;19.70;69.90;;;;;;5090526;28;20198;-69
2022/04/27 12:33:15;;;;;;;2.00;1.80;;;19.70;71.50;;;;;;5090371;28;20221;-69
2022/04/27 12:38:28;;;;;;;3.00;1.90;;;19.60;73.50;;;;;;5089354;28;20279;-69
2022/04/27 12:40:56;;;;;;;2.10;2.00;;;19.40;74.50;;;;;;5090129;28;20301;-69
2022/04/27 12:43:24;;;;;;;4.63;2.40;;;19.30;75.10;;;;;;5089919;28;20199;-69
2022/04/27 12:46:10;;;;;;;4.00;2.90;;;19.20;74.50;;;;;;5085856;28;20214;-69
2022/04/27 12:48:38;;;;;;;3.17;2.80;;;18.90;74.00;;;;;;5090734;28;20218;-68
2022/04/27 12:51:09;;;;;;;3.30;2.60;;;18.90;74.60;;;;;;5090035;28;20232;-68
2022/04/27 12:53:36;;;;;;;5.33;2.40;;;18.70;74.00;;;;;;5090243;28;20234;-68
2022/04/27 12:56:15;;;;;;;2.40;2.30;;;18.50;74.80;;;;;;5090287;28;20209;-68
2022/04/27 12:58:42;;;;;;;2.30;2.10;;;18.70;75.00;;;;;;5090549;28;20261;-68
2022/04/27 13:01:27;;;;;;;2.20;2.03;;;19.10;76.30;;;;;;5082451;28;20291;-68
2022/04/27 13:03:53;;;;;;;7.13;2.07;;;19.20;70.80;;;;;;5070049;28;20287;-68
2022/04/27 13:06:20;;;;;;;3.53;2.40;;;19.40;72.80;;;;;;5069734;28;20203;-68
2022/04/27 13:08:47;;;;;;;1.80;1.70;;;19.50;71.20;;;;;;5069584;28;20261;-68